메인 페이지
METAR-TAF:

METAR-TAF

공항 :

Reading Regional Airport (Carl A. Spaatz Field)

레딩, 펜실베이니아, 미국

위도: 40-22-24N, 경도: 075-57-34W, 고도: 105m

현재 날씨관측

예보는 31분 전, 18:54시(UTC)에 발표되었습니다.
북서22kt, 순간 최대 풍속 27kt
온도 9°C
습도 46%
기압 1017 hPa
시정: 16.1km
고도 4200ft 상공 구름 보통

METAR: KRDG 231854Z 31022G27KT 10SM SCT042 09/M02 A3004 RMK AO2 PK WND 30027/1853 SLP177 T00941017 $

시각: 14:25 (19:25 UTC)

예보

예보는 1 시간 55분 전, 17:30시(UTC)에 발표되었습니다.
예보 대상 시간: 23일 18시부터 24일 18시까지 (UTC)
북서16kt, 순간 최대 풍속 26kt
시정: 10km
고도 4000ft 상공 구름 보통
23일 2300시부터 (UTC)
서북서9kt
시정: 10km
고도 4000ft 상공 구름 보통
24일 1400시부터 (UTC)
북북서8kt
시정: 10km
고도 4000ft 상공 구름 조금

TAF: KRDG 231730Z 2318/2418 32016G26KT P6SM SCT040 FM232300 29009KT P6SM SCT040 FM241400 33008KT P6SM FEW040

4,000개 이상의 공항 관측 자료 및 예보 (METAR 및 TAF 보고).

지도상에서 검색 가능한 기상관측소가 노란 점과 빨간 점으로 표시되어 있습니다.

기상관측소 명을 보려면 표시 위로 마우스를 이동하세요.

날씨 관측과 예보를 보려면 클릭하세요.

지도 변경 : 확대하려면 엑스 표시가 있는 녹색 버튼, 축소하려면 빼기 표시가 있는 녹색 버튼, 다음 페이지의 지도를 보려면 녹색 화살표를 클릭하세요.


METAR-TAF: